createdAt,value
2023-02-09T00:01:26.932Z,0.50
2023-02-09T00:03:56.128Z,0.60
2023-02-09T00:06:26.455Z,0.50
2023-02-09T00:08:55.045Z,0.60
2023-02-09T00:11:47.514Z,0.50
2023-02-09T00:14:16.931Z,0.50
2023-02-09T00:16:46.962Z,0.50
2023-02-09T00:19:16.347Z,0.50
2023-02-09T00:21:44.892Z,0.40
2023-02-09T00:24:13.537Z,0.40
2023-02-09T00:26:42.775Z,0.50
2023-02-09T00:29:11.524Z,0.50
2023-02-09T00:31:40.390Z,0.40
2023-02-09T00:34:11.494Z,0.40
2023-02-09T00:36:39.822Z,0.50
2023-02-09T00:39:08.595Z,0.40
2023-02-09T00:41:54.850Z,0.40
2023-02-09T00:44:23.510Z,0.40
2023-02-09T00:46:52.243Z,0.30
2023-02-09T00:49:22.447Z,0.30
2023-02-09T00:51:53.285Z,0.30
2023-02-09T00:54:23.147Z,0.30
2023-02-09T00:56:51.637Z,0.30
2023-02-09T00:59:19.943Z,0.30
2023-02-09T01:01:48.699Z,0.30
2023-02-09T01:04:17.133Z,0.40
2023-02-09T01:06:47.784Z,0.40
2023-02-09T01:09:18.049Z,0.40
2023-02-09T01:11:46.389Z,0.30
2023-02-09T01:14:14.833Z,0.30
2023-02-09T01:16:43.461Z,0.30
2023-02-09T01:19:14.274Z,0.30
2023-02-09T01:21:43.310Z,0.30
2023-02-09T01:24:15.660Z,0.30
2023-02-09T01:26:44.292Z,0.20
2023-02-09T01:29:15.008Z,0.20
2023-02-09T01:31:44.340Z,0.20
2023-02-09T01:34:14.980Z,0.20
2023-02-09T01:36:43.939Z,0.10
2023-02-09T01:39:15.129Z,0.10
2023-02-09T01:41:44.790Z,0.10
2023-02-09T01:44:52.727Z,0.10
2023-02-09T01:47:21.468Z,0.00
2023-02-09T01:49:51.894Z,0.00
2023-02-09T01:52:26.103Z,0.00
2023-02-09T01:55:00.762Z,0.00
2023-02-09T01:57:32.916Z,0.00
2023-02-09T02:00:05.667Z,0.00
2023-02-09T02:02:44.232Z,-0.10
2023-02-09T02:05:12.956Z,-0.10
2023-02-09T02:07:47.537Z,-0.10
2023-02-09T02:10:17.311Z,0.00
2023-02-09T02:12:46.275Z,-0.10
2023-02-09T02:15:14.776Z,0.00
2023-02-09T02:18:07.526Z,0.00
2023-02-09T02:21:15.096Z,0.00
2023-02-09T02:23:49.553Z,0.00
2023-02-09T02:26:58.132Z,0.00
2023-02-09T02:30:03.817Z,0.00
2023-02-09T02:32:43.288Z,0.00
2023-02-09T02:35:19.250Z,0.00
2023-02-09T02:37:59.206Z,0.00
2023-02-09T02:40:44.332Z,0.00
2023-02-09T02:43:23.712Z,0.00
2023-02-09T02:45:57.834Z,0.00
2023-02-09T02:48:34.563Z,0.00
2023-02-09T02:51:07.262Z,0.00
2023-02-09T02:53:38.706Z,-0.10
2023-02-09T02:56:16.563Z,-0.10
2023-02-09T02:58:47.282Z,-0.10
2023-02-09T03:01:21.230Z,-0.10
2023-02-09T03:03:52.700Z,-0.10
2023-02-09T03:06:21.210Z,-0.20
2023-02-09T03:08:52.522Z,-0.20
2023-02-09T03:11:22.940Z,-0.20
2023-02-09T03:14:22.422Z,-0.20
2023-02-09T03:17:03.593Z,-0.20
2023-02-09T03:19:41.263Z,-0.20
2023-02-09T03:22:14.772Z,-0.20
2023-02-09T03:24:49.281Z,-0.30
2023-02-09T03:27:22.947Z,-0.30
2023-02-09T03:29:56.074Z,-0.30
2023-02-09T03:32:26.113Z,-0.40
2023-02-09T03:34:57.145Z,-0.40
2023-02-09T03:37:25.673Z,-0.40
2023-02-09T03:39:54.189Z,-0.40
2023-02-09T03:42:22.566Z,-0.40
2023-02-09T03:44:50.990Z,-0.40
2023-02-09T03:47:19.437Z,-0.50
2023-02-09T03:49:48.031Z,-0.40
2023-02-09T03:52:18.410Z,-0.50
2023-02-09T03:54:47.849Z,-0.50
2023-02-09T03:57:16.176Z,-0.50
2023-02-09T03:59:44.667Z,-0.50
2023-02-09T04:02:13.290Z,-0.50
2023-02-09T04:04:41.673Z,-0.50
2023-02-09T04:07:10.474Z,-0.50
2023-02-09T04:09:40.274Z,-0.60
2023-02-09T04:12:08.940Z,-0.60
2023-02-09T04:14:37.316Z,-0.70
2023-02-09T04:17:05.769Z,-0.70
2023-02-09T04:19:37.105Z,-0.70
2023-02-09T04:22:05.551Z,-0.60
2023-02-09T04:24:36.059Z,-0.60
2023-02-09T04:27:06.672Z,-0.60
2023-02-09T04:29:35.072Z,-0.60
2023-02-09T04:32:06.778Z,-0.60
2023-02-09T04:34:35.080Z,-0.60
2023-02-09T04:37:03.495Z,-0.60
2023-02-09T04:39:34.591Z,-0.50
2023-02-09T04:42:05.093Z,-0.60
2023-02-09T04:44:37.732Z,-0.50
2023-02-09T04:47:06.123Z,-0.60
2023-02-09T04:49:37.205Z,-0.60
2023-02-09T04:52:06.295Z,-0.60
2023-02-09T04:54:35.142Z,-0.60
2023-02-09T04:57:20.720Z,-0.70
2023-02-09T04:59:50.448Z,-0.70
2023-02-09T05:02:18.819Z,-0.80
2023-02-09T05:04:47.148Z,-0.80
2023-02-09T05:07:15.794Z,-0.80
2023-02-09T05:09:44.199Z,-0.80
2023-02-09T05:12:12.630Z,-0.80
2023-02-09T05:14:40.901Z,-0.80
2023-02-09T05:17:10.765Z,-0.80
2023-02-09T05:19:39.052Z,-0.80
2023-02-09T05:22:08.360Z,-0.80
2023-02-09T05:24:39.175Z,-0.80
2023-02-09T05:27:08.495Z,-0.80
2023-02-09T05:29:38.714Z,-0.80
2023-02-09T05:32:11.664Z,-0.80
2023-02-09T05:34:40.290Z,-0.70
2023-02-09T05:37:08.757Z,-0.70
2023-02-09T05:39:39.898Z,-0.70
2023-02-09T05:42:16.429Z,-0.70
2023-02-09T05:44:45.968Z,-0.80
2023-02-09T05:47:18.035Z,-0.70
2023-02-09T05:49:49.052Z,-0.80
2023-02-09T05:52:21.139Z,-0.70
2023-02-09T05:54:50.311Z,-0.70
2023-02-09T05:57:19.618Z,-0.70
2023-02-09T05:59:57.237Z,-0.60
2023-02-09T06:02:29.818Z,-0.60
2023-02-09T06:05:11.487Z,-0.50
2023-02-09T06:07:40.048Z,-0.50
2023-02-09T06:10:11.761Z,-0.50
2023-02-09T06:12:41.366Z,-0.40
2023-02-09T06:15:13.897Z,-0.40
2023-02-09T06:17:44.106Z,-0.40
2023-02-09T06:20:13.517Z,-0.40
2023-02-09T06:22:41.879Z,-0.30
2023-02-09T06:25:13.647Z,-0.30
2023-02-09T06:27:42.110Z,-0.30
2023-02-09T06:30:14.484Z,-0.30
2023-02-09T06:32:44.408Z,-0.20
2023-02-09T06:35:12.804Z,-0.20
2023-02-09T06:37:41.429Z,-0.20
2023-02-09T06:40:12.835Z,-0.10
2023-02-09T06:42:50.325Z,-0.10
2023-02-09T22:30:20.781Z,7.40
2023-02-09T22:32:49.237Z,7.40
2023-02-09T22:35:18.176Z,7.40
2023-02-09T22:37:47.063Z,7.40
2023-02-09T22:40:15.770Z,7.40
2023-02-09T22:42:47.118Z,7.40
2023-02-09T22:45:15.737Z,7.40
2023-02-09T22:47:47.587Z,7.50
2023-02-09T22:50:17.015Z,7.40
2023-02-09T22:52:45.838Z,7.40
2023-02-09T22:55:14.255Z,7.40
2023-02-09T22:57:42.580Z,7.40
2023-02-09T23:00:14.428Z,7.40
2023-02-09T23:02:42.898Z,7.30
2023-02-09T23:05:12.612Z,7.40
2023-02-09T23:07:41.821Z,7.30
2023-02-09T23:10:10.581Z,7.30
2023-02-09T23:12:38.881Z,7.30
2023-02-09T23:15:08.252Z,7.20
2023-02-09T23:17:36.555Z,7.20
2023-02-09T23:20:08.280Z,7.30
2023-02-09T23:22:37.964Z,7.30
2023-02-09T23:25:07.857Z,7.30
2023-02-09T23:27:36.207Z,7.30
2023-02-09T23:30:06.016Z,7.30
2023-02-09T23:32:36.457Z,7.30
2023-02-09T23:35:06.577Z,7.30
2023-02-09T23:37:38.138Z,7.30
2023-02-09T23:40:09.078Z,7.20
2023-02-09T23:42:37.513Z,7.30
2023-02-09T23:45:09.394Z,7.20
2023-02-09T23:47:37.829Z,7.30
2023-02-09T23:50:09.449Z,7.30
2023-02-09T23:52:37.902Z,7.30
2023-02-09T23:55:08.571Z,7.20
2023-02-09T23:57:37.178Z,7.30
